sensor_id;sensor_type;location;lat;lon;timestamp;temperature;humidity
11824;DHT22;5969;50.780;7.726;2022-08-03T00:02:05;16.90;99.90
11824;DHT22;5969;50.780;7.726;2022-08-03T00:04:32;16.90;99.90
11824;DHT22;5969;50.780;7.726;2022-08-03T00:06:59;16.90;99.90
11824;DHT22;5969;50.780;7.726;2022-08-03T00:09:25;16.90;99.90
11824;DHT22;5969;50.780;7.726;2022-08-03T00:11:53;16.80;99.90
11824;DHT22;5969;50.780;7.726;2022-08-03T00:14:20;16.70;99.90
11824;DHT22;5969;50.780;7.726;2022-08-03T00:16:47;16.60;99.90
11824;DHT22;5969;50.780;7.726;2022-08-03T00:19:13;16.60;99.90
11824;DHT22;5969;50.780;7.726;2022-08-03T00:21:40;16.60;99.90
11824;DHT22;5969;50.780;7.726;2022-08-03T00:24:07;16.60;99.90
11824;DHT22;5969;50.780;7.726;2022-08-03T00:26:33;16.50;99.90
11824;DHT22;5969;50.780;7.726;2022-08-03T00:29:02;16.50;99.90
11824;DHT22;5969;50.780;7.726;2022-08-03T00:31:28;16.40;99.90
11824;DHT22;5969;50.780;7.726;2022-08-03T00:33:55;16.30;99.90
11824;DHT22;5969;50.780;7.726;2022-08-03T00:36:22;16.20;99.90
11824;DHT22;5969;50.780;7.726;2022-08-03T00:38:48;16.20;99.90
11824;DHT22;5969;50.780;7.726;2022-08-03T00:41:15;16.10;99.90
11824;DHT22;5969;50.780;7.726;2022-08-03T00:43:42;16.10;99.90
11824;DHT22;5969;50.780;7.726;2022-08-03T00:46:10;16.20;99.90
11824;DHT22;5969;50.780;7.726;2022-08-03T00:48:37;16.20;99.90
11824;DHT22;5969;50.780;7.726;2022-08-03T00:51:04;16.20;99.90
11824;DHT22;5969;50.780;7.726;2022-08-03T00:53:32;16.30;99.90
11824;DHT22;5969;50.780;7.726;2022-08-03T00:56:00;16.30;99.90
11824;DHT22;5969;50.780;7.726;2022-08-03T00:58:26;16.20;99.90
11824;DHT22;5969;50.780;7.726;2022-08-03T01:00:53;16.10;99.90
11824;DHT22;5969;50.780;7.726;2022-08-03T01:03:21;16.10;99.90
11824;DHT22;5969;50.780;7.726;2022-08-03T01:05:52;16.00;99.90
11824;DHT22;5969;50.780;7.726;2022-08-03T01:08:27;16.00;99.90
11824;DHT22;5969;50.780;7.726;2022-08-03T01:11:05;16.00;99.90
11824;DHT22;5969;50.780;7.726;2022-08-03T01:13:49;15.90;99.90
11824;DHT22;5969;50.780;7.726;2022-08-03T01:16:23;15.90;99.90
11824;DHT22;5969;50.780;7.726;2022-08-03T01:18:58;15.70;99.90
11824;DHT22;5969;50.780;7.726;2022-08-03T01:21:28;15.70;99.90
11824;DHT22;5969;50.780;7.726;2022-08-03T01:24:11;15.70;99.90
11824;DHT22;5969;50.780;7.726;2022-08-03T01:27:02;15.60;99.90
11824;DHT22;5969;50.780;7.726;2022-08-03T01:29:56;15.50;99.90
11824;DHT22;5969;50.780;7.726;2022-08-03T01:32:30;15.50;99.90
11824;DHT22;5969;50.780;7.726;2022-08-03T01:35:03;15.50;99.90
11824;DHT22;5969;50.780;7.726;2022-08-03T01:37:36;15.50;99.90
11824;DHT22;5969;50.780;7.726;2022-08-03T01:40:05;15.50;99.90
11824;DHT22;5969;50.780;7.726;2022-08-03T01:42:32;15.50;99.90
11824;DHT22;5969;50.780;7.726;2022-08-03T01:45:02;15.50;99.90
11824;DHT22;5969;50.780;7.726;2022-08-03T01:47:30;15.50;99.90
11824;DHT22;5969;50.780;7.726;2022-08-03T01:50:00;15.50;99.90
11824;DHT22;5969;50.780;7.726;2022-08-03T01:52:28;15.50;99.90
11824;DHT22;5969;50.780;7.726;2022-08-03T01:54:57;15.50;99.90
11824;DHT22;5969;50.780;7.726;2022-08-03T01:57:24;15.40;99.90
11824;DHT22;5969;50.780;7.726;2022-08-03T01:59:55;15.40;99.90
11824;DHT22;5969;50.780;7.726;2022-08-03T02:02:24;15.40;99.90
11824;DHT22;5969;50.780;7.726;2022-08-03T02:04:53;15.40;99.90
11824;DHT22;5969;50.780;7.726;2022-08-03T02:07:22;15.30;99.90
11824;DHT22;5969;50.780;7.726;2022-08-03T02:09:51;15.10;99.90
11824;DHT22;5969;50.780;7.726;2022-08-03T02:12:20;15.10;99.90
11824;DHT22;5969;50.780;7.726;2022-08-03T02:14:48;15.10;99.90
11824;DHT22;5969;50.780;7.726;2022-08-03T02:17:15;15.10;99.90
11824;DHT22;5969;50.780;7.726;2022-08-03T02:19:44;15.10;99.90
11824;DHT22;5969;50.780;7.726;2022-08-03T02:22:12;15.00;99.90
11824;DHT22;5969;50.780;7.726;2022-08-03T02:24:40;14.90;99.90
11824;DHT22;5969;50.780;7.726;2022-08-03T02:27:12;14.90;99.90
11824;DHT22;5969;50.780;7.726;2022-08-03T02:29:45;14.90;99.90
11824;DHT22;5969;50.780;7.726;2022-08-03T02:32:16;14.90;99.90
11824;DHT22;5969;50.780;7.726;2022-08-03T02:34:50;14.80;99.90
11824;DHT22;5969;50.780;7.726;2022-08-03T02:37:19;14.70;99.90
11824;DHT22;5969;50.780;7.726;2022-08-03T02:39:48;14.80;99.90
11824;DHT22;5969;50.780;7.726;2022-08-03T02:42:20;14.70;99.90
11824;DHT22;5969;50.780;7.726;2022-08-03T02:44:47;14.80;99.90
11824;DHT22;5969;50.780;7.726;2022-08-03T02:47:16;14.80;99.90
11824;DHT22;5969;50.780;7.726;2022-08-03T02:49:47;14.80;99.90
11824;DHT22;5969;50.780;7.726;2022-08-03T02:52:16;14.90;99.90
11824;DHT22;5969;50.780;7.726;2022-08-03T02:54:45;14.90;99.90
11824;DHT22;5969;50.780;7.726;2022-08-03T02:57:14;14.80;99.90
11824;DHT22;5969;50.780;7.726;2022-08-03T02:59:43;14.80;99.90
11824;DHT22;5969;50.780;7.726;2022-08-03T03:02:11;14.80;99.90
11824;DHT22;5969;50.780;7.726;2022-08-03T03:04:40;14.70;99.90
11824;DHT22;5969;50.780;7.726;2022-08-03T03:07:10;14.60;99.90
11824;DHT22;5969;50.780;7.726;2022-08-03T03:09:38;14.60;99.90
11824;DHT22;5969;50.780;7.726;2022-08-03T03:12:07;14.60;99.90
11824;DHT22;5969;50.780;7.726;2022-08-03T03:14:34;14.60;99.90
11824;DHT22;5969;50.780;7.726;2022-08-03T03:17:02;14.60;99.90
11824;DHT22;5969;50.780;7.726;2022-08-03T03:19:31;14.50;99.90
11824;DHT22;5969;50.780;7.726;2022-08-03T03:21:59;14.50;99.90
11824;DHT22;5969;50.780;7.726;2022-08-03T03:24:28;14.30;99.90
11824;DHT22;5969;50.780;7.726;2022-08-03T03:26:55;14.20;99.90
11824;DHT22;5969;50.780;7.726;2022-08-03T03:29:23;14.20;99.90
11824;DHT22;5969;50.780;7.726;2022-08-03T03:31:49;14.20;99.90
11824;DHT22;5969;50.780;7.726;2022-08-03T03:34:17;14.10;99.90
11824;DHT22;5969;50.780;7.726;2022-08-03T03:36:44;14.10;99.90
11824;DHT22;5969;50.780;7.726;2022-08-03T03:39:11;14.10;99.90
11824;DHT22;5969;50.780;7.726;2022-08-03T03:41:39;14.10;99.90
11824;DHT22;5969;50.780;7.726;2022-08-03T03:44:06;14.10;99.90
11824;DHT22;5969;50.780;7.726;2022-08-03T03:46:33;14.10;99.90
11824;DHT22;5969;50.780;7.726;2022-08-03T03:49:00;14.10;99.90
11824;DHT22;5969;50.780;7.726;2022-08-03T03:51:26;14.10;99.90
11824;DHT22;5969;50.780;7.726;2022-08-03T03:53:54;14.00;99.90
11824;DHT22;5969;50.780;7.726;2022-08-03T03:56:21;14.00;99.90
11824;DHT22;5969;50.780;7.726;2022-08-03T03:58:49;14.00;99.90
11824;DHT22;5969;50.780;7.726;2022-08-03T04:01:16;14.10;99.90
11824;DHT22;5969;50.780;7.726;2022-08-03T04:03:43;14.00;99.90
11824;DHT22;5969;50.780;7.726;2022-08-03T04:06:10;14.00;99.90
11824;DHT22;5969;50.780;7.726;2022-08-03T04:08:55;14.00;99.90
11824;DHT22;5969;50.780;7.726;2022-08-03T04:11:42;14.10;99.90
11824;DHT22;5969;50.780;7.726;2022-08-03T04:14:15;14.10;99.90
11824;DHT22;5969;50.780;7.726;2022-08-03T04:16:44;14.10;99.90
11824;DHT22;5969;50.780;7.726;2022-08-03T04:19:16;14.10;99.90
11824;DHT22;5969;50.780;7.726;2022-08-03T04:21:47;14.00;99.90
11824;DHT22;5969;50.780;7.726;2022-08-03T04:24:14;14.00;99.90
11824;DHT22;5969;50.780;7.726;2022-08-03T04:26:42;14.00;99.90
11824;DHT22;5969;50.780;7.726;2022-08-03T04:29:12;14.10;99.90
11824;DHT22;5969;50.780;7.726;2022-08-03T04:31:41;14.20;99.90
11824;DHT22;5969;50.780;7.726;2022-08-03T04:34:09;14.30;99.90
11824;DHT22;5969;50.780;7.726;2022-08-03T04:36:39;14.40;99.90
11824;DHT22;5969;50.780;7.726;2022-08-03T04:39:13;14.50;99.90
11824;DHT22;5969;50.780;7.726;2022-08-03T04:41:42;14.60;99.90
11824;DHT22;5969;50.780;7.726;2022-08-03T04:44:11;14.60;99.90
11824;DHT22;5969;50.780;7.726;2022-08-03T04:46:39;14.70;99.90
11824;DHT22;5969;50.780;7.726;2022-08-03T04:49:09;14.70;99.90
11824;DHT22;5969;50.780;7.726;2022-08-03T04:51:37;14.80;99.90
11824;DHT22;5969;50.780;7.726;2022-08-03T04:54:05;14.70;99.90
11824;DHT22;5969;50.780;7.726;2022-08-03T04:56:32;14.70;99.90
11824;DHT22;5969;50.780;7.726;2022-08-03T04:58:59;14.70;99.90
11824;DHT22;5969;50.780;7.726;2022-08-03T05:01:27;14.80;99.90
11824;DHT22;5969;50.780;7.726;2022-08-03T05:03:54;14.90;99.90
11824;DHT22;5969;50.780;7.726;2022-08-03T05:06:21;14.90;99.90
11824;DHT22;5969;50.780;7.726;2022-08-03T05:08:47;14.90;99.90
11824;DHT22;5969;50.780;7.726;2022-08-03T05:11:14;14.90;99.90
11824;DHT22;5969;50.780;7.726;2022-08-03T05:13:41;15.00;99.90
11824;DHT22;5969;50.780;7.726;2022-08-03T05:16:08;15.10;99.90
11824;DHT22;5969;50.780;7.726;2022-08-03T05:18:36;15.10;99.90
11824;DHT22;5969;50.780;7.726;2022-08-03T05:21:02;15.20;99.90
11824;DHT22;5969;50.780;7.726;2022-08-03T05:23:29;15.30;99.90
11824;DHT22;5969;50.780;7.726;2022-08-03T05:25:56;15.30;99.90
11824;DHT22;5969;50.780;7.726;2022-08-03T05:28:23;15.40;99.90
11824;DHT22;5969;50.780;7.726;2022-08-03T05:30:50;15.50;99.90
11824;DHT22;5969;50.780;7.726;2022-08-03T05:33:16;15.60;99.90
11824;DHT22;5969;50.780;7.726;2022-08-03T05:35:44;15.70;99.90
11824;DHT22;5969;50.780;7.726;2022-08-03T05:38:11;15.80;99.90
11824;DHT22;5969;50.780;7.726;2022-08-03T05:40:38;16.00;99.90
11824;DHT22;5969;50.780;7.726;2022-08-03T05:43:04;16.10;99.90
11824;DHT22;5969;50.780;7.726;2022-08-03T05:45:31;16.20;99.90
11824;DHT22;5969;50.780;7.726;2022-08-03T05:47:58;16.30;99.90
11824;DHT22;5969;50.780;7.726;2022-08-03T05:50:25;16.40;99.90
11824;DHT22;5969;50.780;7.726;2022-08-03T05:52:55;16.50;99.90
11824;DHT22;5969;50.780;7.726;2022-08-03T05:55:23;16.70;99.90
11824;DHT22;5969;50.780;7.726;2022-08-03T05:57:49;16.90;99.90
11824;DHT22;5969;50.780;7.726;2022-08-03T06:00:17;17.00;99.90
11824;DHT22;5969;50.780;7.726;2022-08-03T06:02:44;16.90;99.90
11824;DHT22;5969;50.780;7.726;2022-08-03T06:05:10;16.90;99.90
11824;DHT22;5969;50.780;7.726;2022-08-03T06:07:37;16.90;99.90
11824;DHT22;5969;50.780;7.726;2022-08-03T06:10:07;17.10;99.90
11824;DHT22;5969;50.780;7.726;2022-08-03T06:12:33;17.20;99.90
11824;DHT22;5969;50.780;7.726;2022-08-03T06:15:01;17.40;99.90
11824;DHT22;5969;50.780;7.726;2022-08-03T06:17:28;17.50;99.90
11824;DHT22;5969;50.780;7.726;2022-08-03T06:19:55;17.70;99.90
11824;DHT22;5969;50.780;7.726;2022-08-03T06:22:22;17.90;99.90
11824;DHT22;5969;50.780;7.726;2022-08-03T06:24:48;17.90;99.90
11824;DHT22;5969;50.780;7.726;2022-08-03T06:27:16;18.00;99.90
11824;DHT22;5969;50.780;7.726;2022-08-03T06:29:43;18.10;99.90
11824;DHT22;5969;50.780;7.726;2022-08-03T06:32:10;18.20;99.90
11824;DHT22;5969;50.780;7.726;2022-08-03T06:34:37;18.30;99.90
11824;DHT22;5969;50.780;7.726;2022-08-03T06:37:03;18.60;99.90
11824;DHT22;5969;50.780;7.726;2022-08-03T06:39:30;18.70;99.90
11824;DHT22;5969;50.780;7.726;2022-08-03T06:41:57;18.90;99.90
11824;DHT22;5969;50.780;7.726;2022-08-03T06:44:25;19.00;99.90
11824;DHT22;5969;50.780;7.726;2022-08-03T06:46:52;19.30;99.90
11824;DHT22;5969;50.780;7.726;2022-08-03T06:49:19;19.40;99.90
11824;DHT22;5969;50.780;7.726;2022-08-03T06:51:46;19.60;99.90
11824;DHT22;5969;50.780;7.726;2022-08-03T06:54:12;19.80;99.90
11824;DHT22;5969;50.780;7.726;2022-08-03T06:56:39;20.10;99.90
11824;DHT22;5969;50.780;7.726;2022-08-03T06:59:06;20.20;99.90
11824;DHT22;5969;50.780;7.726;2022-08-03T07:01:34;20.50;99.90
11824;DHT22;5969;50.780;7.726;2022-08-03T07:04:00;20.50;99.90
11824;DHT22;5969;50.780;7.726;2022-08-03T07:06:27;20.50;99.90
11824;DHT22;5969;50.780;7.726;2022-08-03T07:08:54;20.60;99.90
11824;DHT22;5969;50.780;7.726;2022-08-03T07:11:21;20.80;99.90
11824;DHT22;5969;50.780;7.726;2022-08-03T07:13:47;21.00;99.90
11824;DHT22;5969;50.780;7.726;2022-08-03T07:16:14;21.20;99.90
11824;DHT22;5969;50.780;7.726;2022-08-03T07:18:42;21.40;99.90
11824;DHT22;5969;50.780;7.726;2022-08-03T07:21:09;21.40;99.90
11824;DHT22;5969;50.780;7.726;2022-08-03T07:23:37;21.50;99.90
11824;DHT22;5969;50.780;7.726;2022-08-03T07:26:03;21.60;99.90
11824;DHT22;5969;50.780;7.726;2022-08-03T07:28:30;21.80;99.90
11824;DHT22;5969;50.780;7.726;2022-08-03T07:30:57;21.90;99.90
11824;DHT22;5969;50.780;7.726;2022-08-03T07:33:24;22.20;99.90
11824;DHT22;5969;50.780;7.726;2022-08-03T07:35:52;22.40;99.90
11824;DHT22;5969;50.780;7.726;2022-08-03T07:38:19;22.50;99.90
11824;DHT22;5969;50.780;7.726;2022-08-03T07:40:45;22.70;99.90
11824;DHT22;5969;50.780;7.726;2022-08-03T07:43:12;22.80;99.90
11824;DHT22;5969;50.780;7.726;2022-08-03T07:45:39;22.80;99.90
11824;DHT22;5969;50.780;7.726;2022-08-03T07:48:05;22.90;99.90
11824;DHT22;5969;50.780;7.726;2022-08-03T07:50:32;23.20;99.90
11824;DHT22;5969;50.780;7.726;2022-08-03T07:53:00;23.40;99.90
11824;DHT22;5969;50.780;7.726;2022-08-03T07:55:27;23.70;99.90
11824;DHT22;5969;50.780;7.726;2022-08-03T07:58:04;23.80;99.90
11824;DHT22;5969;50.780;7.726;2022-08-03T08:00:32;23.90;99.90
11824;DHT22;5969;50.780;7.726;2022-08-03T08:02:59;24.00;99.90
11824;DHT22;5969;50.780;7.726;2022-08-03T08:05:27;24.20;99.90
11824;DHT22;5969;50.780;7.726;2022-08-03T08:07:54;24.40;99.90
11824;DHT22;5969;50.780;7.726;2022-08-03T08:10:22;24.50;99.90
11824;DHT22;5969;50.780;7.726;2022-08-03T08:12:49;24.70;99.90
11824;DHT22;5969;50.780;7.726;2022-08-03T08:15:16;24.90;99.90
11824;DHT22;5969;50.780;7.726;2022-08-03T08:17:44;25.10;99.90
11824;DHT22;5969;50.780;7.726;2022-08-03T08:20:15;25.30;99.90
11824;DHT22;5969;50.780;7.726;2022-08-03T08:22:42;25.60;99.90
11824;DHT22;5969;50.780;7.726;2022-08-03T08:25:09;25.80;99.90
11824;DHT22;5969;50.780;7.726;2022-08-03T08:27:42;26.00;99.90
11824;DHT22;5969;50.780;7.726;2022-08-03T08:30:10;26.10;99.90
11824;DHT22;5969;50.780;7.726;2022-08-03T08:32:37;26.30;99.90
11824;DHT22;5969;50.780;7.726;2022-08-03T08:35:05;26.40;99.90
11824;DHT22;5969;50.780;7.726;2022-08-03T08:37:32;26.50;99.90
11824;DHT22;5969;50.780;7.726;2022-08-03T08:39:59;26.70;99.90
11824;DHT22;5969;50.780;7.726;2022-08-03T08:42:25;26.80;99.90
11824;DHT22;5969;50.780;7.726;2022-08-03T08:44:54;26.90;99.90
11824;DHT22;5969;50.780;7.726;2022-08-03T08:47:23;27.10;99.90
11824;DHT22;5969;50.780;7.726;2022-08-03T08:49:52;27.30;99.90
11824;DHT22;5969;50.780;7.726;2022-08-03T08:52:23;27.30;99.90
11824;DHT22;5969;50.780;7.726;2022-08-03T08:54:51;27.50;99.90
11824;DHT22;5969;50.780;7.726;2022-08-03T08:57:21;27.70;99.90
11824;DHT22;5969;50.780;7.726;2022-08-03T08:59:51;27.80;99.90
11824;DHT22;5969;50.780;7.726;2022-08-03T09:02:22;27.80;99.90
11824;DHT22;5969;50.780;7.726;2022-08-03T09:04:50;27.80;99.90
11824;DHT22;5969;50.780;7.726;2022-08-03T09:07:17;27.90;99.90
11824;DHT22;5969;50.780;7.726;2022-08-03T09:09:44;27.80;99.90
11824;DHT22;5969;50.780;7.726;2022-08-03T09:12:10;27.90;99.90
11824;DHT22;5969;50.780;7.726;2022-08-03T09:14:37;28.10;99.90
11824;DHT22;5969;50.780;7.726;2022-08-03T09:17:04;28.30;99.90
11824;DHT22;5969;50.780;7.726;2022-08-03T09:19:33;28.30;99.90
11824;DHT22;5969;50.780;7.726;2022-08-03T09:22:11;28.30;99.90
11824;DHT22;5969;50.780;7.726;2022-08-03T09:24:38;28.50;99.90
11824;DHT22;5969;50.780;7.726;2022-08-03T09:27:18;28.50;99.90
11824;DHT22;5969;50.780;7.726;2022-08-03T09:29:47;28.50;99.90
11824;DHT22;5969;50.780;7.726;2022-08-03T09:32:14;28.40;99.90
11824;DHT22;5969;50.780;7.726;2022-08-03T09:34:42;28.40;99.90
11824;DHT22;5969;50.780;7.726;2022-08-03T09:37:12;28.60;99.90
11824;DHT22;5969;50.780;7.726;2022-08-03T09:39:40;28.60;99.90
11824;DHT22;5969;50.780;7.726;2022-08-03T09:42:08;28.60;99.90
11824;DHT22;5969;50.780;7.726;2022-08-03T09:44:36;28.80;99.90
11824;DHT22;5969;50.780;7.726;2022-08-03T09:47:03;28.70;99.90
11824;DHT22;5969;50.780;7.726;2022-08-03T09:49:31;28.70;99.90
11824;DHT22;5969;50.780;7.726;2022-08-03T09:52:11;28.90;99.90
11824;DHT22;5969;50.780;7.726;2022-08-03T09:54:39;28.90;99.90
11824;DHT22;5969;50.780;7.726;2022-08-03T09:57:06;28.90;99.90
11824;DHT22;5969;50.780;7.726;2022-08-03T09:59:33;28.80;99.90
11824;DHT22;5969;50.780;7.726;2022-08-03T10:02:01;28.80;99.90
11824;DHT22;5969;50.780;7.726;2022-08-03T10:04:28;29.10;99.90
11824;DHT22;5969;50.780;7.726;2022-08-03T10:07:04;29.30;99.90
11824;DHT22;5969;50.780;7.726;2022-08-03T10:09:31;29.20;99.90
11824;DHT22;5969;50.780;7.726;2022-08-03T10:12:06;29.40;99.90
11824;DHT22;5969;50.780;7.726;2022-08-03T10:14:35;29.40;99.90
11824;DHT22;5969;50.780;7.726;2022-08-03T10:17:03;29.40;99.80
11824;DHT22;5969;50.780;7.726;2022-08-03T10:19:29;29.50;99.90
11824;DHT22;5969;50.780;7.726;2022-08-03T10:22:02;29.60;99.90
11824;DHT22;5969;50.780;7.726;2022-08-03T10:24:29;29.80;99.40
11824;DHT22;5969;50.780;7.726;2022-08-03T10:27:01;29.90;99.20
11824;DHT22;5969;50.780;7.726;2022-08-03T10:29:32;29.80;98.80
11824;DHT22;5969;50.780;7.726;2022-08-03T10:32:03;29.70;98.90
11824;DHT22;5969;50.780;7.726;2022-08-03T10:34:37;29.50;99.30
11824;DHT22;5969;50.780;7.726;2022-08-03T10:37:10;29.60;99.30
11824;DHT22;5969;50.780;7.726;2022-08-03T10:39:39;29.70;99.70
11824;DHT22;5969;50.780;7.726;2022-08-03T10:42:19;29.90;99.40
11824;DHT22;5969;50.780;7.726;2022-08-03T10:44:49;30.20;99.00
11824;DHT22;5969;50.780;7.726;2022-08-03T10:47:18;30.30;99.50
11824;DHT22;5969;50.780;7.726;2022-08-03T10:49:47;30.20;98.60
11824;DHT22;5969;50.780;7.726;2022-08-03T10:52:15;30.20;98.80
11824;DHT22;5969;50.780;7.726;2022-08-03T10:54:43;30.10;98.70
11824;DHT22;5969;50.780;7.726;2022-08-03T10:57:52;30.00;99.00
11824;DHT22;5969;50.780;7.726;2022-08-03T11:00:20;30.00;99.00
11824;DHT22;5969;50.780;7.726;2022-08-03T11:03:07;30.10;98.50
11824;DHT22;5969;50.780;7.726;2022-08-03T11:05:39;30.00;98.20
11824;DHT22;5969;50.780;7.726;2022-08-03T11:08:28;30.00;98.20
11824;DHT22;5969;50.780;7.726;2022-08-03T11:10:57;30.00;98.60
11824;DHT22;5969;50.780;7.726;2022-08-03T11:13:27;30.10;98.30
11824;DHT22;5969;50.780;7.726;2022-08-03T11:15:57;30.10;98.80
11824;DHT22;5969;50.780;7.726;2022-08-03T11:18:24;30.30;98.10
11824;DHT22;5969;50.780;7.726;2022-08-03T11:20:52;30.50;98.40
11824;DHT22;5969;50.780;7.726;2022-08-03T11:23:41;30.70;97.70
11824;DHT22;5969;50.780;7.726;2022-08-03T11:26:10;30.50;97.40
11824;DHT22;5969;50.780;7.726;2022-08-03T11:28:37;30.40;96.90
11824;DHT22;5969;50.780;7.726;2022-08-03T11:31:44;30.30;97.20
11824;DHT22;5969;50.780;7.726;2022-08-03T11:34:15;30.30;97.10
11824;DHT22;5969;50.780;7.726;2022-08-03T11:37:20;30.50;97.20
11824;DHT22;5969;50.780;7.726;2022-08-03T11:39:50;30.80;97.40
11824;DHT22;5969;50.780;7.726;2022-08-03T11:42:42;31.20;97.00
11824;DHT22;5969;50.780;7.726;2022-08-03T11:45:15;31.10;95.70
11824;DHT22;5969;50.780;7.726;2022-08-03T11:47:44;30.90;96.30
11824;DHT22;5969;50.780;7.726;2022-08-03T11:50:11;31.00;96.10
11824;DHT22;5969;50.780;7.726;2022-08-03T11:52:40;31.10;95.70
11824;DHT22;5969;50.780;7.726;2022-08-03T11:55:13;31.20;96.30
11824;DHT22;5969;50.780;7.726;2022-08-03T11:57:40;31.10;96.10
11824;DHT22;5969;50.780;7.726;2022-08-03T12:00:28;31.20;95.70
11824;DHT22;5969;50.780;7.726;2022-08-03T12:03:01;31.40;96.30
11824;DHT22;5969;50.780;7.726;2022-08-03T12:05:52;31.10;95.40
11824;DHT22;5969;50.780;7.726;2022-08-03T12:08:29;30.90;96.10
11824;DHT22;5969;50.780;7.726;2022-08-03T12:10:59;31.20;96.00
11824;DHT22;5969;50.780;7.726;2022-08-03T12:13:26;31.40;96.00
11824;DHT22;5969;50.780;7.726;2022-08-03T12:16:03;31.60;95.50
11824;DHT22;5969;50.780;7.726;2022-08-03T12:18:30;31.80;94.90
11824;DHT22;5969;50.780;7.726;2022-08-03T12:21:03;31.80;94.80
11824;DHT22;5969;50.780;7.726;2022-08-03T12:23:30;31.90;94.70
11824;DHT22;5969;50.780;7.726;2022-08-03T12:26:02;31.60;95.20
11824;DHT22;5969;50.780;7.726;2022-08-03T12:28:29;31.70;94.70
11824;DHT22;5969;50.780;7.726;2022-08-03T12:31:00;31.60;94.80
11824;DHT22;5969;50.780;7.726;2022-08-03T12:33:28;31.50;94.70
11824;DHT22;5969;50.780;7.726;2022-08-03T12:36:04;31.60;95.50
11824;DHT22;5969;50.780;7.726;2022-08-03T12:38:31;31.80;94.20
11824;DHT22;5969;50.780;7.726;2022-08-03T12:41:02;31.80;94.10
11824;DHT22;5969;50.780;7.726;2022-08-03T12:43:29;31.80;94.50
11824;DHT22;5969;50.780;7.726;2022-08-03T12:46:12;31.70;94.00
11824;DHT22;5969;50.780;7.726;2022-08-03T12:48:59;31.90;94.20
11824;DHT22;5969;50.780;7.726;2022-08-03T12:51:26;31.80;94.10
11824;DHT22;5969;50.780;7.726;2022-08-03T12:53:54;31.90;94.60
11824;DHT22;5969;50.780;7.726;2022-08-03T12:56:23;32.10;94.50
11824;DHT22;5969;50.780;7.726;2022-08-03T12:58:50;32.10;93.90
11824;DHT22;5969;50.780;7.726;2022-08-03T13:01:17;32.20;93.70
11824;DHT22;5969;50.780;7.726;2022-08-03T13:03:48;32.30;93.40
11824;DHT22;5969;50.780;7.726;2022-08-03T13:06:16;32.20;93.40
11824;DHT22;5969;50.780;7.726;2022-08-03T13:08:43;32.30;93.90
11824;DHT22;5969;50.780;7.726;2022-08-03T13:11:24;32.50;93.60
11824;DHT22;5969;50.780;7.726;2022-08-03T13:13:52;32.50;93.60
11824;DHT22;5969;50.780;7.726;2022-08-03T13:16:19;32.50;93.70
11824;DHT22;5969;50.780;7.726;2022-08-03T13:18:46;32.60;93.50
11824;DHT22;5969;50.780;7.726;2022-08-03T13:21:14;32.60;93.40
11824;DHT22;5969;50.780;7.726;2022-08-03T13:23:41;32.60;93.40
11824;DHT22;5969;50.780;7.726;2022-08-03T13:26:07;32.80;93.40
11824;DHT22;5969;50.780;7.726;2022-08-03T13:28:36;32.90;93.20
11824;DHT22;5969;50.780;7.726;2022-08-03T13:31:02;33.50;93.40
11824;DHT22;5969;50.780;7.726;2022-08-03T13:33:29;34.90;92.70
11824;DHT22;5969;50.780;7.726;2022-08-03T13:35:56;35.90;91.70
11824;DHT22;5969;50.780;7.726;2022-08-03T13:38:23;35.90;91.50
11824;DHT22;5969;50.780;7.726;2022-08-03T13:40:50;36.10;91.00
11824;DHT22;5969;50.780;7.726;2022-08-03T13:43:18;36.40;90.90
11824;DHT22;5969;50.780;7.726;2022-08-03T13:45:47;36.80;91.10
11824;DHT22;5969;50.780;7.726;2022-08-03T13:48:13;37.80;90.60
11824;DHT22;5969;50.780;7.726;2022-08-03T13:50:40;38.00;89.30
11824;DHT22;5969;50.780;7.726;2022-08-03T13:53:07;38.50;90.30
11824;DHT22;5969;50.780;7.726;2022-08-03T13:55:34;38.60;89.70
11824;DHT22;5969;50.780;7.726;2022-08-03T13:58:00;38.60;86.80
11824;DHT22;5969;50.780;7.726;2022-08-03T14:00:27;37.50;88.80
11824;DHT22;5969;50.780;7.726;2022-08-03T14:02:56;38.20;87.70
11824;DHT22;5969;50.780;7.726;2022-08-03T14:05:23;38.20;88.60
11824;DHT22;5969;50.780;7.726;2022-08-03T14:07:49;38.20;88.30
11824;DHT22;5969;50.780;7.726;2022-08-03T14:10:16;37.80;86.70
11824;DHT22;5969;50.780;7.726;2022-08-03T14:12:44;38.80;88.10
11824;DHT22;5969;50.780;7.726;2022-08-03T14:15:10;39.70;87.70
11824;DHT22;5969;50.780;7.726;2022-08-03T14:17:38;39.90;84.60
11824;DHT22;5969;50.780;7.726;2022-08-03T14:20:07;40.30;84.20
11824;DHT22;5969;50.780;7.726;2022-08-03T14:22:34;40.20;82.80
11824;DHT22;5969;50.780;7.726;2022-08-03T14:25:01;39.30;82.50
11824;DHT22;5969;50.780;7.726;2022-08-03T14:27:27;39.10;84.60
11824;DHT22;5969;50.780;7.726;2022-08-03T14:29:54;39.80;83.00
11824;DHT22;5969;50.780;7.726;2022-08-03T14:32:24;40.40;82.60
11824;DHT22;5969;50.780;7.726;2022-08-03T14:34:51;40.60;81.40
11824;DHT22;5969;50.780;7.726;2022-08-03T14:37:19;41.00;82.30
11824;DHT22;5969;50.780;7.726;2022-08-03T14:39:46;41.50;81.60
11824;DHT22;5969;50.780;7.726;2022-08-03T14:42:13;40.40;80.90
11824;DHT22;5969;50.780;7.726;2022-08-03T14:44:41;40.00;81.70
11824;DHT22;5969;50.780;7.726;2022-08-03T14:47:07;40.30;80.70
11824;DHT22;5969;50.780;7.726;2022-08-03T14:49:34;41.30;80.30
11824;DHT22;5969;50.780;7.726;2022-08-03T14:52:01;41.30;79.00
11824;DHT22;5969;50.780;7.726;2022-08-03T14:54:29;40.90;79.10
11824;DHT22;5969;50.780;7.726;2022-08-03T14:56:56;40.70;79.10
11824;DHT22;5969;50.780;7.726;2022-08-03T14:59:23;40.50;79.30
11824;DHT22;5969;50.780;7.726;2022-08-03T15:01:50;40.30;78.80
11824;DHT22;5969;50.780;7.726;2022-08-03T15:04:16;40.20;78.10
11824;DHT22;5969;50.780;7.726;2022-08-03T15:06:43;39.70;80.20
11824;DHT22;5969;50.780;7.726;2022-08-03T15:09:10;41.30;79.10
11824;DHT22;5969;50.780;7.726;2022-08-03T15:11:38;42.50;76.90
11824;DHT22;5969;50.780;7.726;2022-08-03T15:14:05;42.60;77.90
11824;DHT22;5969;50.780;7.726;2022-08-03T15:16:32;43.50;77.60
11824;DHT22;5969;50.780;7.726;2022-08-03T15:18:58;44.20;74.40
11824;DHT22;5969;50.780;7.726;2022-08-03T15:21:25;42.50;74.30
11824;DHT22;5969;50.780;7.726;2022-08-03T15:23:52;41.40;75.80
11824;DHT22;5969;50.780;7.726;2022-08-03T15:26:19;41.90;76.20
11824;DHT22;5969;50.780;7.726;2022-08-03T15:28:47;42.70;75.30
11824;DHT22;5969;50.780;7.726;2022-08-03T15:31:14;42.50;75.80
11824;DHT22;5969;50.780;7.726;2022-08-03T15:33:40;42.80;74.30
11824;DHT22;5969;50.780;7.726;2022-08-03T15:36:07;43.70;75.70
11824;DHT22;5969;50.780;7.726;2022-08-03T15:38:34;44.30;74.20
11824;DHT22;5969;50.780;7.726;2022-08-03T15:41:01;45.10;74.00
11824;DHT22;5969;50.780;7.726;2022-08-03T15:43:28;45.10;72.00
11824;DHT22;5969;50.780;7.726;2022-08-03T15:45:56;43.40;72.80
11824;DHT22;5969;50.780;7.726;2022-08-03T15:48:23;42.20;73.20
11824;DHT22;5969;50.780;7.726;2022-08-03T15:50:50;42.50;73.10
11824;DHT22;5969;50.780;7.726;2022-08-03T15:53:17;41.80;74.60
11824;DHT22;5969;50.780;7.726;2022-08-03T15:55:43;41.60;74.10
11824;DHT22;5969;50.780;7.726;2022-08-03T15:58:10;42.10;74.70